sensor_id;sensor_type;location;lat;lon;timestamp;temperature;humidity
22436;DHT22;11385;50.822;4.324;2023-07-13T00:00:47;17.90;99.90
22436;DHT22;11385;50.822;4.324;2023-07-13T00:03:14;17.80;99.90
22436;DHT22;11385;50.822;4.324;2023-07-13T00:05:40;17.70;99.90
22436;DHT22;11385;50.822;4.324;2023-07-13T00:08:07;17.70;99.90
22436;DHT22;11385;50.822;4.324;2023-07-13T00:10:39;17.80;99.90
22436;DHT22;11385;50.822;4.324;2023-07-13T00:13:05;18.00;99.90
22436;DHT22;11385;50.822;4.324;2023-07-13T00:15:32;18.00;99.90
22436;DHT22;11385;50.822;4.324;2023-07-13T00:17:59;17.80;99.90
22436;DHT22;11385;50.822;4.324;2023-07-13T00:20:26;17.70;99.90
22436;DHT22;11385;50.822;4.324;2023-07-13T00:22:53;17.60;99.90
22436;DHT22;11385;50.822;4.324;2023-07-13T00:25:21;17.70;99.90
22436;DHT22;11385;50.822;4.324;2023-07-13T00:27:50;17.80;99.90
22436;DHT22;11385;50.822;4.324;2023-07-13T00:30:17;17.80;99.90
22436;DHT22;11385;50.822;4.324;2023-07-13T00:32:44;17.80;99.90
22436;DHT22;11385;50.822;4.324;2023-07-13T00:35:13;17.80;99.90
22436;DHT22;11385;50.822;4.324;2023-07-13T00:37:41;17.70;99.90
22436;DHT22;11385;50.822;4.324;2023-07-13T00:40:09;17.80;99.90
22436;DHT22;11385;50.822;4.324;2023-07-13T00:42:36;17.80;99.90
22436;DHT22;11385;50.822;4.324;2023-07-13T00:46:09;17.80;99.90
22436;DHT22;11385;50.822;4.324;2023-07-13T00:47:36;17.60;99.90
22436;DHT22;11385;50.822;4.324;2023-07-13T00:50:06;17.60;99.90
22436;DHT22;11385;50.822;4.324;2023-07-13T00:52:36;17.60;99.90
22436;DHT22;11385;50.822;4.324;2023-07-13T00:55:04;17.60;99.90
22436;DHT22;11385;50.822;4.324;2023-07-13T00:57:31;17.60;99.90
22436;DHT22;11385;50.822;4.324;2023-07-13T01:00:00;17.70;99.90
22436;DHT22;11385;50.822;4.324;2023-07-13T01:02:30;17.50;99.90
22436;DHT22;11385;50.822;4.324;2023-07-13T01:04:56;17.60;99.90
22436;DHT22;11385;50.822;4.324;2023-07-13T01:07:23;17.60;99.90
22436;DHT22;11385;50.822;4.324;2023-07-13T01:09:50;17.50;99.90
22436;DHT22;11385;50.822;4.324;2023-07-13T01:12:16;17.50;99.90
22436;DHT22;11385;50.822;4.324;2023-07-13T01:14:43;17.40;99.90
22436;DHT22;11385;50.822;4.324;2023-07-13T01:17:11;17.30;99.90
22436;DHT22;11385;50.822;4.324;2023-07-13T01:19:42;17.00;99.90
22436;DHT22;11385;50.822;4.324;2023-07-13T01:22:13;17.00;99.90
22436;DHT22;11385;50.822;4.324;2023-07-13T01:24:42;17.10;99.90
22436;DHT22;11385;50.822;4.324;2023-07-13T01:27:11;17.20;99.90
22436;DHT22;11385;50.822;4.324;2023-07-13T01:29:39;17.10;99.90
22436;DHT22;11385;50.822;4.324;2023-07-13T01:32:09;17.20;99.90
22436;DHT22;11385;50.822;4.324;2023-07-13T01:34:36;17.10;99.90
22436;DHT22;11385;50.822;4.324;2023-07-13T01:37:04;17.00;99.90
22436;DHT22;11385;50.822;4.324;2023-07-13T01:39:31;17.10;99.90
22436;DHT22;11385;50.822;4.324;2023-07-13T01:41:59;17.20;99.90
22436;DHT22;11385;50.822;4.324;2023-07-13T01:44:26;17.20;99.90
22436;DHT22;11385;50.822;4.324;2023-07-13T01:46:53;17.20;99.90
22436;DHT22;11385;50.822;4.324;2023-07-13T01:49:19;17.20;99.90
22436;DHT22;11385;50.822;4.324;2023-07-13T01:51:46;16.90;99.90
22436;DHT22;11385;50.822;4.324;2023-07-13T01:54:13;16.80;99.90
22436;DHT22;11385;50.822;4.324;2023-07-13T01:56:40;16.70;99.90
22436;DHT22;11385;50.822;4.324;2023-07-13T01:59:08;17.00;99.90
22436;DHT22;11385;50.822;4.324;2023-07-13T02:01:35;16.80;99.90
22436;DHT22;11385;50.822;4.324;2023-07-13T02:04:02;16.90;99.90
22436;DHT22;11385;50.822;4.324;2023-07-13T02:06:29;17.00;99.90
22436;DHT22;11385;50.822;4.324;2023-07-13T02:08:56;17.00;99.90
22436;DHT22;11385;50.822;4.324;2023-07-13T02:11:22;17.10;99.90
22436;DHT22;11385;50.822;4.324;2023-07-13T02:13:49;17.00;99.90
22436;DHT22;11385;50.822;4.324;2023-07-13T02:16:15;16.90;99.90
22436;DHT22;11385;50.822;4.324;2023-07-13T02:18:42;16.80;99.90
22436;DHT22;11385;50.822;4.324;2023-07-13T02:21:09;16.80;99.90
22436;DHT22;11385;50.822;4.324;2023-07-13T02:23:35;16.60;99.90
22436;DHT22;11385;50.822;4.324;2023-07-13T02:26:04;16.70;99.90
22436;DHT22;11385;50.822;4.324;2023-07-13T02:28:31;16.60;99.90
22436;DHT22;11385;50.822;4.324;2023-07-13T02:31:05;16.50;99.90
22436;DHT22;11385;50.822;4.324;2023-07-13T02:33:32;16.60;99.90
22436;DHT22;11385;50.822;4.324;2023-07-13T02:35:58;16.70;99.90
22436;DHT22;11385;50.822;4.324;2023-07-13T02:38:25;16.50;99.90
22436;DHT22;11385;50.822;4.324;2023-07-13T02:40:52;16.60;99.90
22436;DHT22;11385;50.822;4.324;2023-07-13T02:43:18;16.70;99.90
22436;DHT22;11385;50.822;4.324;2023-07-13T02:45:45;16.60;99.90
22436;DHT22;11385;50.822;4.324;2023-07-13T02:48:13;16.60;99.90
22436;DHT22;11385;50.822;4.324;2023-07-13T02:50:40;16.60;99.90
22436;DHT22;11385;50.822;4.324;2023-07-13T02:53:07;16.60;99.90
22436;DHT22;11385;50.822;4.324;2023-07-13T02:55:34;16.50;99.90
22436;DHT22;11385;50.822;4.324;2023-07-13T02:58:01;16.50;99.90
22436;DHT22;11385;50.822;4.324;2023-07-13T03:00:27;16.50;99.90
22436;DHT22;11385;50.822;4.324;2023-07-13T03:02:54;16.50;99.90
22436;DHT22;11385;50.822;4.324;2023-07-13T03:05:23;16.50;99.90
22436;DHT22;11385;50.822;4.324;2023-07-13T03:07:50;16.60;99.90
22436;DHT22;11385;50.822;4.324;2023-07-13T03:10:17;16.60;99.90
22436;DHT22;11385;50.822;4.324;2023-07-13T03:12:43;16.70;99.90
22436;DHT22;11385;50.822;4.324;2023-07-13T03:15:10;16.70;99.90
22436;DHT22;11385;50.822;4.324;2023-07-13T03:17:37;16.70;99.90
22436;DHT22;11385;50.822;4.324;2023-07-13T03:20:04;16.50;99.90
22436;DHT22;11385;50.822;4.324;2023-07-13T03:22:31;16.50;99.90
22436;DHT22;11385;50.822;4.324;2023-07-13T03:24:58;16.60;99.90
22436;DHT22;11385;50.822;4.324;2023-07-13T03:27:25;16.50;99.90
22436;DHT22;11385;50.822;4.324;2023-07-13T03:29:51;16.50;99.90
22436;DHT22;11385;50.822;4.324;2023-07-13T03:32:18;16.50;99.90
22436;DHT22;11385;50.822;4.324;2023-07-13T03:34:44;16.40;99.90
22436;DHT22;11385;50.822;4.324;2023-07-13T03:37:11;16.30;99.90
22436;DHT22;11385;50.822;4.324;2023-07-13T03:39:37;16.50;99.90
22436;DHT22;11385;50.822;4.324;2023-07-13T03:42:05;16.40;99.90
22436;DHT22;11385;50.822;4.324;2023-07-13T03:44:31;16.40;99.90
22436;DHT22;11385;50.822;4.324;2023-07-13T03:46:58;16.50;99.90
22436;DHT22;11385;50.822;4.324;2023-07-13T03:49:25;16.70;99.90
22436;DHT22;11385;50.822;4.324;2023-07-13T03:51:51;16.70;99.90
22436;DHT22;11385;50.822;4.324;2023-07-13T03:54:18;16.60;99.90
22436;DHT22;11385;50.822;4.324;2023-07-13T03:56:44;16.60;99.90
22436;DHT22;11385;50.822;4.324;2023-07-13T03:59:11;16.50;99.90
22436;DHT22;11385;50.822;4.324;2023-07-13T04:01:38;16.40;99.90
22436;DHT22;11385;50.822;4.324;2023-07-13T04:04:05;16.30;99.90
22436;DHT22;11385;50.822;4.324;2023-07-13T04:06:32;16.30;99.90
22436;DHT22;11385;50.822;4.324;2023-07-13T04:09:00;16.50;99.90
22436;DHT22;11385;50.822;4.324;2023-07-13T04:11:29;16.70;99.90
22436;DHT22;11385;50.822;4.324;2023-07-13T04:13:59;16.80;99.90
22436;DHT22;11385;50.822;4.324;2023-07-13T04:16:26;16.70;99.90
22436;DHT22;11385;50.822;4.324;2023-07-13T04:18:54;16.70;99.90
22436;DHT22;11385;50.822;4.324;2023-07-13T04:21:23;16.80;99.90
22436;DHT22;11385;50.822;4.324;2023-07-13T04:23:49;17.00;99.90
22436;DHT22;11385;50.822;4.324;2023-07-13T04:26:16;17.00;99.90
22436;DHT22;11385;50.822;4.324;2023-07-13T04:28:43;17.10;99.90
22436;DHT22;11385;50.822;4.324;2023-07-13T04:31:09;17.00;99.90
22436;DHT22;11385;50.822;4.324;2023-07-13T04:33:36;16.80;99.90
22436;DHT22;11385;50.822;4.324;2023-07-13T04:36:04;16.90;99.90
22436;DHT22;11385;50.822;4.324;2023-07-13T04:38:32;16.70;99.90
22436;DHT22;11385;50.822;4.324;2023-07-13T04:41:01;16.60;99.90
22436;DHT22;11385;50.822;4.324;2023-07-13T04:43:29;16.60;99.90
22436;DHT22;11385;50.822;4.324;2023-07-13T04:45:56;16.50;99.90
22436;DHT22;11385;50.822;4.324;2023-07-13T04:48:23;16.40;99.90
22436;DHT22;11385;50.822;4.324;2023-07-13T04:50:56;16.50;99.90
22436;DHT22;11385;50.822;4.324;2023-07-13T04:53:24;16.40;99.90
22436;DHT22;11385;50.822;4.324;2023-07-13T04:55:51;16.40;99.90
22436;DHT22;11385;50.822;4.324;2023-07-13T04:58:18;16.40;99.90
22436;DHT22;11385;50.822;4.324;2023-07-13T05:00:45;16.50;99.90
22436;DHT22;11385;50.822;4.324;2023-07-13T05:03:11;16.40;99.90
22436;DHT22;11385;50.822;4.324;2023-07-13T05:05:38;16.50;99.90
22436;DHT22;11385;50.822;4.324;2023-07-13T05:08:04;16.50;99.90
22436;DHT22;11385;50.822;4.324;2023-07-13T05:10:33;16.50;99.90
22436;DHT22;11385;50.822;4.324;2023-07-13T05:13:00;16.40;99.90
22436;DHT22;11385;50.822;4.324;2023-07-13T05:15:26;16.30;99.90
22436;DHT22;11385;50.822;4.324;2023-07-13T05:17:53;16.50;99.90
22436;DHT22;11385;50.822;4.324;2023-07-13T05:20:20;16.60;99.90
22436;DHT22;11385;50.822;4.324;2023-07-13T05:22:46;16.80;99.90
22436;DHT22;11385;50.822;4.324;2023-07-13T05:25:14;16.90;99.90
22436;DHT22;11385;50.822;4.324;2023-07-13T05:27:41;17.10;99.90
22436;DHT22;11385;50.822;4.324;2023-07-13T05:30:08;17.30;99.90
22436;DHT22;11385;50.822;4.324;2023-07-13T05:32:37;17.30;99.90
22436;DHT22;11385;50.822;4.324;2023-07-13T05:35:03;17.20;99.90
22436;DHT22;11385;50.822;4.324;2023-07-13T05:37:30;17.20;99.90
22436;DHT22;11385;50.822;4.324;2023-07-13T05:39:57;17.30;99.90
22436;DHT22;11385;50.822;4.324;2023-07-13T05:42:23;17.40;99.90
22436;DHT22;11385;50.822;4.324;2023-07-13T05:44:50;17.20;99.90
22436;DHT22;11385;50.822;4.324;2023-07-13T05:47:16;16.90;99.90
22436;DHT22;11385;50.822;4.324;2023-07-13T05:49:43;16.90;99.90
22436;DHT22;11385;50.822;4.324;2023-07-13T05:52:10;17.00;99.90
22436;DHT22;11385;50.822;4.324;2023-07-13T05:54:37;17.20;99.90
22436;DHT22;11385;50.822;4.324;2023-07-13T05:57:04;17.50;99.90
22436;DHT22;11385;50.822;4.324;2023-07-13T05:59:31;17.80;99.90
22436;DHT22;11385;50.822;4.324;2023-07-13T06:01:57;17.60;99.90
22436;DHT22;11385;50.822;4.324;2023-07-13T06:04:24;17.60;99.90
22436;DHT22;11385;50.822;4.324;2023-07-13T06:06:51;17.80;99.90
22436;DHT22;11385;50.822;4.324;2023-07-13T06:09:17;18.00;99.90
22436;DHT22;11385;50.822;4.324;2023-07-13T06:11:44;17.80;99.90
22436;DHT22;11385;50.822;4.324;2023-07-13T06:14:11;17.90;99.90
22436;DHT22;11385;50.822;4.324;2023-07-13T06:16:37;17.80;99.90
22436;DHT22;11385;50.822;4.324;2023-07-13T06:19:04;17.80;99.90
22436;DHT22;11385;50.822;4.324;2023-07-13T06:21:32;17.50;99.90
22436;DHT22;11385;50.822;4.324;2023-07-13T06:23:58;17.30;99.90
22436;DHT22;11385;50.822;4.324;2023-07-13T06:26:25;17.50;99.90
22436;DHT22;11385;50.822;4.324;2023-07-13T06:28:52;17.90;99.90
22436;DHT22;11385;50.822;4.324;2023-07-13T06:31:19;18.00;99.90
22436;DHT22;11385;50.822;4.324;2023-07-13T06:33:46;18.00;99.90
22436;DHT22;11385;50.822;4.324;2023-07-13T06:36:12;17.80;99.90
22436;DHT22;11385;50.822;4.324;2023-07-13T06:38:39;17.80;99.90
22436;DHT22;11385;50.822;4.324;2023-07-13T06:41:07;18.10;99.90
22436;DHT22;11385;50.822;4.324;2023-07-13T06:43:34;18.40;99.90
22436;DHT22;11385;50.822;4.324;2023-07-13T06:46:01;18.60;99.90
22436;DHT22;11385;50.822;4.324;2023-07-13T06:48:27;18.40;99.90
22436;DHT22;11385;50.822;4.324;2023-07-13T06:50:54;18.50;99.90
22436;DHT22;11385;50.822;4.324;2023-07-13T06:53:22;18.50;99.90
22436;DHT22;11385;50.822;4.324;2023-07-13T06:55:49;18.50;99.90
22436;DHT22;11385;50.822;4.324;2023-07-13T06:58:18;18.60;99.90
22436;DHT22;11385;50.822;4.324;2023-07-13T07:00:45;18.70;99.90
22436;DHT22;11385;50.822;4.324;2023-07-13T07:03:13;18.60;99.90
22436;DHT22;11385;50.822;4.324;2023-07-13T07:05:39;18.70;99.90
22436;DHT22;11385;50.822;4.324;2023-07-13T07:08:06;18.60;99.90
22436;DHT22;11385;50.822;4.324;2023-07-13T07:10:33;18.70;99.90
22436;DHT22;11385;50.822;4.324;2023-07-13T07:13:01;18.60;99.90
22436;DHT22;11385;50.822;4.324;2023-07-13T07:15:28;18.80;99.90
22436;DHT22;11385;50.822;4.324;2023-07-13T07:17:55;18.90;99.90
22436;DHT22;11385;50.822;4.324;2023-07-13T07:20:21;18.60;99.90
22436;DHT22;11385;50.822;4.324;2023-07-13T07:22:48;18.30;99.90
22436;DHT22;11385;50.822;4.324;2023-07-13T07:25:15;18.30;99.90
22436;DHT22;11385;50.822;4.324;2023-07-13T07:27:42;18.40;99.90
22436;DHT22;11385;50.822;4.324;2023-07-13T07:30:09;18.40;99.90
22436;DHT22;11385;50.822;4.324;2023-07-13T07:32:36;18.70;99.90
22436;DHT22;11385;50.822;4.324;2023-07-13T07:35:02;18.90;99.90
22436;DHT22;11385;50.822;4.324;2023-07-13T07:37:29;19.10;99.90
22436;DHT22;11385;50.822;4.324;2023-07-13T07:39:55;19.00;99.90
22436;DHT22;11385;50.822;4.324;2023-07-13T07:42:22;18.80;99.90
22436;DHT22;11385;50.822;4.324;2023-07-13T07:44:49;18.70;99.90
22436;DHT22;11385;50.822;4.324;2023-07-13T07:47:15;18.70;99.90
22436;DHT22;11385;50.822;4.324;2023-07-13T07:49:42;19.00;99.90
22436;DHT22;11385;50.822;4.324;2023-07-13T07:52:09;19.00;99.90
22436;DHT22;11385;50.822;4.324;2023-07-13T07:54:36;19.10;99.90
22436;DHT22;11385;50.822;4.324;2023-07-13T07:57:02;19.00;99.90
22436;DHT22;11385;50.822;4.324;2023-07-13T07:59:29;19.10;99.90
22436;DHT22;11385;50.822;4.324;2023-07-13T08:01:56;19.10;99.90
22436;DHT22;11385;50.822;4.324;2023-07-13T08:04:22;19.30;99.90
22436;DHT22;11385;50.822;4.324;2023-07-13T08:06:49;19.20;99.90
22436;DHT22;11385;50.822;4.324;2023-07-13T08:09:16;19.20;99.90
22436;DHT22;11385;50.822;4.324;2023-07-13T08:11:42;19.50;99.90
22436;DHT22;11385;50.822;4.324;2023-07-13T08:14:09;19.90;99.90
22436;DHT22;11385;50.822;4.324;2023-07-13T08:16:36;20.10;99.90
22436;DHT22;11385;50.822;4.324;2023-07-13T08:19:03;19.90;99.90
22436;DHT22;11385;50.822;4.324;2023-07-13T08:21:30;20.00;99.90
22436;DHT22;11385;50.822;4.324;2023-07-13T08:23:57;20.20;99.90
22436;DHT22;11385;50.822;4.324;2023-07-13T08:26:23;20.20;99.90
22436;DHT22;11385;50.822;4.324;2023-07-13T08:28:50;20.30;99.90
22436;DHT22;11385;50.822;4.324;2023-07-13T08:31:17;20.60;99.90
22436;DHT22;11385;50.822;4.324;2023-07-13T08:33:44;20.60;99.90
22436;DHT22;11385;50.822;4.324;2023-07-13T08:36:11;20.70;99.90
22436;DHT22;11385;50.822;4.324;2023-07-13T08:38:37;20.70;99.90
22436;DHT22;11385;50.822;4.324;2023-07-13T08:41:14;20.60;99.90
22436;DHT22;11385;50.822;4.324;2023-07-13T08:43:41;20.40;99.90
22436;DHT22;11385;50.822;4.324;2023-07-13T08:46:13;20.40;99.90
22436;DHT22;11385;50.822;4.324;2023-07-13T08:48:46;20.50;99.90
22436;DHT22;11385;50.822;4.324;2023-07-13T08:51:36;20.70;99.90
22436;DHT22;11385;50.822;4.324;2023-07-13T08:54:16;20.90;99.90
22436;DHT22;11385;50.822;4.324;2023-07-13T08:56:43;20.70;99.90
22436;DHT22;11385;50.822;4.324;2023-07-13T08:59:16;20.50;99.90
22436;DHT22;11385;50.822;4.324;2023-07-13T09:04:25;20.30;99.90
22436;DHT22;11385;50.822;4.324;2023-07-13T09:07:21;20.60;99.90
22436;DHT22;11385;50.822;4.324;2023-07-13T09:10:01;20.70;99.90
22436;DHT22;11385;50.822;4.324;2023-07-13T09:12:45;20.60;99.90
22436;DHT22;11385;50.822;4.324;2023-07-13T09:15:26;20.50;99.90
22436;DHT22;11385;50.822;4.324;2023-07-13T09:18:01;20.80;99.90
22436;DHT22;11385;50.822;4.324;2023-07-13T09:20:32;20.70;99.90
22436;DHT22;11385;50.822;4.324;2023-07-13T09:23:04;21.20;99.90
22436;DHT22;11385;50.822;4.324;2023-07-13T09:25:33;21.30;99.90
22436;DHT22;11385;50.822;4.324;2023-07-13T09:28:10;21.30;99.90
22436;DHT22;11385;50.822;4.324;2023-07-13T09:30:38;21.50;99.90
22436;DHT22;11385;50.822;4.324;2023-07-13T09:33:05;21.80;99.90
22436;DHT22;11385;50.822;4.324;2023-07-13T09:35:32;21.80;99.90
22436;DHT22;11385;50.822;4.324;2023-07-13T09:38:10;21.90;99.90
22436;DHT22;11385;50.822;4.324;2023-07-13T09:40:40;22.10;99.90
22436;DHT22;11385;50.822;4.324;2023-07-13T09:43:10;21.60;99.90
22436;DHT22;11385;50.822;4.324;2023-07-13T09:45:37;21.60;99.90
22436;DHT22;11385;50.822;4.324;2023-07-13T09:48:10;21.60;99.90
22436;DHT22;11385;50.822;4.324;2023-07-13T09:50:35;21.90;99.90
22436;DHT22;11385;50.822;4.324;2023-07-13T09:53:02;21.90;99.90
22436;DHT22;11385;50.822;4.324;2023-07-13T09:55:32;21.90;99.90
22436;DHT22;11385;50.822;4.324;2023-07-13T09:58:18;21.90;99.90
22436;DHT22;11385;50.822;4.324;2023-07-13T10:00:57;21.80;99.90
22436;DHT22;11385;50.822;4.324;2023-07-13T10:03:27;21.80;99.90
22436;DHT22;11385;50.822;4.324;2023-07-13T10:05:54;21.80;99.90
22436;DHT22;11385;50.822;4.324;2023-07-13T10:08:26;21.70;99.90
22436;DHT22;11385;50.822;4.324;2023-07-13T10:10:59;21.90;99.90
22436;DHT22;11385;50.822;4.324;2023-07-13T10:13:31;22.30;99.90
22436;DHT22;11385;50.822;4.324;2023-07-13T10:15:59;22.20;99.90
22436;DHT22;11385;50.822;4.324;2023-07-13T10:18:27;22.50;99.90
22436;DHT22;11385;50.822;4.324;2023-07-13T10:21:00;22.00;99.90
22436;DHT22;11385;50.822;4.324;2023-07-13T10:23:29;22.30;99.90
22436;DHT22;11385;50.822;4.324;2023-07-13T10:25:59;22.50;99.90
22436;DHT22;11385;50.822;4.324;2023-07-13T10:28:33;22.40;99.90
22436;DHT22;11385;50.822;4.324;2023-07-13T10:31:01;22.40;99.90
22436;DHT22;11385;50.822;4.324;2023-07-13T10:33:29;22.50;99.90
22436;DHT22;11385;50.822;4.324;2023-07-13T10:36:03;22.60;99.90
22436;DHT22;11385;50.822;4.324;2023-07-13T10:38:29;22.80;99.90
22436;DHT22;11385;50.822;4.324;2023-07-13T10:41:01;22.50;99.90
22436;DHT22;11385;50.822;4.324;2023-07-13T10:43:30;22.10;99.90
22436;DHT22;11385;50.822;4.324;2023-07-13T10:45:59;22.00;99.90
22436;DHT22;11385;50.822;4.324;2023-07-13T10:48:27;22.10;99.90
22436;DHT22;11385;50.822;4.324;2023-07-13T10:50:55;22.10;99.90
22436;DHT22;11385;50.822;4.324;2023-07-13T10:53:31;22.10;99.90
22436;DHT22;11385;50.822;4.324;2023-07-13T10:56:02;22.40;99.90
22436;DHT22;11385;50.822;4.324;2023-07-13T10:58:39;22.70;99.90
22436;DHT22;11385;50.822;4.324;2023-07-13T11:01:13;22.80;99.90
22436;DHT22;11385;50.822;4.324;2023-07-13T11:03:58;23.00;99.90
22436;DHT22;11385;50.822;4.324;2023-07-13T11:06:36;23.10;99.90
22436;DHT22;11385;50.822;4.324;2023-07-13T11:11:56;22.70;99.90
22436;DHT22;11385;50.822;4.324;2023-07-13T11:14:29;22.80;99.90
22436;DHT22;11385;50.822;4.324;2023-07-13T11:16:57;22.90;99.90
22436;DHT22;11385;50.822;4.324;2023-07-13T11:19:27;23.00;99.90
22436;DHT22;11385;50.822;4.324;2023-07-13T11:22:12;22.80;99.90
22436;DHT22;11385;50.822;4.324;2023-07-13T11:25:00;22.80;99.90
22436;DHT22;11385;50.822;4.324;2023-07-13T11:27:51;23.10;99.90
22436;DHT22;11385;50.822;4.324;2023-07-13T11:30:23;23.40;99.90
22436;DHT22;11385;50.822;4.324;2023-07-13T11:35:42;23.20;99.90
22436;DHT22;11385;50.822;4.324;2023-07-13T11:38:22;22.90;99.90
22436;DHT22;11385;50.822;4.324;2023-07-13T11:40:54;22.80;99.90
22436;DHT22;11385;50.822;4.324;2023-07-13T11:43:21;22.70;99.90
22436;DHT22;11385;50.822;4.324;2023-07-13T11:45:51;22.60;99.90
22436;DHT22;11385;50.822;4.324;2023-07-13T11:48:23;22.60;99.90
22436;DHT22;11385;50.822;4.324;2023-07-13T11:50:56;22.70;99.90
22436;DHT22;11385;50.822;4.324;2023-07-13T11:53:26;22.40;99.90
22436;DHT22;11385;50.822;4.324;2023-07-13T11:55:53;22.10;99.90
22436;DHT22;11385;50.822;4.324;2023-07-13T11:58:23;22.00;99.90
22436;DHT22;11385;50.822;4.324;2023-07-13T12:00:51;21.90;99.90
22436;DHT22;11385;50.822;4.324;2023-07-13T12:03:22;22.20;99.90
22436;DHT22;11385;50.822;4.324;2023-07-13T12:05:57;22.20;99.90
22436;DHT22;11385;50.822;4.324;2023-07-13T12:08:23;22.30;99.90
22436;DHT22;11385;50.822;4.324;2023-07-13T12:10:58;22.50;99.90
22436;DHT22;11385;50.822;4.324;2023-07-13T12:13:27;22.80;99.90
22436;DHT22;11385;50.822;4.324;2023-07-13T12:15:56;23.00;99.90
22436;DHT22;11385;50.822;4.324;2023-07-13T12:18:29;23.10;99.90
22436;DHT22;11385;50.822;4.324;2023-07-13T12:20:57;23.00;99.90
22436;DHT22;11385;50.822;4.324;2023-07-13T12:23:29;22.90;99.90
22436;DHT22;11385;50.822;4.324;2023-07-13T12:25:57;22.50;99.90
22436;DHT22;11385;50.822;4.324;2023-07-13T12:28:36;21.30;99.90
22436;DHT22;11385;50.822;4.324;2023-07-13T12:31:06;20.70;99.90
22436;DHT22;11385;50.822;4.324;2023-07-13T12:33:34;20.00;99.90
22436;DHT22;11385;50.822;4.324;2023-07-13T12:36:05;19.20;99.90
22436;DHT22;11385;50.822;4.324;2023-07-13T12:38:32;18.90;99.90
22436;DHT22;11385;50.822;4.324;2023-07-13T12:41:01;18.80;99.90
22436;DHT22;11385;50.822;4.324;2023-07-13T12:43:33;18.80;99.90
22436;DHT22;11385;50.822;4.324;2023-07-13T12:46:15;18.60;99.90
22436;DHT22;11385;50.822;4.324;2023-07-13T12:48:38;18.40;99.90
22436;DHT22;11385;50.822;4.324;2023-07-13T12:51:10;18.10;99.90
22436;DHT22;11385;50.822;4.324;2023-07-13T12:53:42;18.00;99.90
22436;DHT22;11385;50.822;4.324;2023-07-13T12:56:25;17.80;99.90
22436;DHT22;11385;50.822;4.324;2023-07-13T12:58:41;17.70;99.90
22436;DHT22;11385;50.822;4.324;2023-07-13T13:01:11;17.70;99.90
22436;DHT22;11385;50.822;4.324;2023-07-13T13:03:45;17.80;99.90
22436;DHT22;11385;50.822;4.324;2023-07-13T13:06:25;18.00;99.90
22436;DHT22;11385;50.822;4.324;2023-07-13T13:08:56;18.50;99.90
22436;DHT22;11385;50.822;4.324;2023-07-13T13:11:25;19.30;99.90
22436;DHT22;11385;50.822;4.324;2023-07-13T13:13:53;19.80;99.90
22436;DHT22;11385;50.822;4.324;2023-07-13T13:16:37;20.10;99.90
22436;DHT22;11385;50.822;4.324;2023-07-13T13:19:13;20.20;99.90
22436;DHT22;11385;50.822;4.324;2023-07-13T13:21:39;20.50;99.90
22436;DHT22;11385;50.822;4.324;2023-07-13T13:24:13;20.80;99.90
22436;DHT22;11385;50.822;4.324;2023-07-13T13:26:41;21.20;99.90
22436;DHT22;11385;50.822;4.324;2023-07-13T13:29:13;21.40;99.90
22436;DHT22;11385;50.822;4.324;2023-07-13T13:31:40;21.70;99.90
22436;DHT22;11385;50.822;4.324;2023-07-13T13:34:12;21.80;99.90
22436;DHT22;11385;50.822;4.324;2023-07-13T13:36:40;22.10;99.90
22436;DHT22;11385;50.822;4.324;2023-07-13T13:39:16;22.50;99.90
22436;DHT22;11385;50.822;4.324;2023-07-13T13:41:42;23.00;99.90
22436;DHT22;11385;50.822;4.324;2023-07-13T13:44:10;22.80;99.90
22436;DHT22;11385;50.822;4.324;2023-07-13T13:46:37;23.00;99.90
22436;DHT22;11385;50.822;4.324;2023-07-13T13:49:03;23.10;99.90
22436;DHT22;11385;50.822;4.324;2023-07-13T13:51:30;23.40;99.90
22436;DHT22;11385;50.822;4.324;2023-07-13T13:53:57;23.60;99.90
22436;DHT22;11385;50.822;4.324;2023-07-13T13:56:26;23.40;99.90
22436;DHT22;11385;50.822;4.324;2023-07-13T13:58:53;23.70;99.90
22436;DHT22;11385;50.822;4.324;2023-07-13T14:01:21;23.70;99.90
22436;DHT22;11385;50.822;4.324;2023-07-13T14:03:49;23.70;99.90
22436;DHT22;11385;50.822;4.324;2023-07-13T14:06:17;23.50;99.90
22436;DHT22;11385;50.822;4.324;2023-07-13T14:08:44;23.30;99.90
22436;DHT22;11385;50.822;4.324;2023-07-13T14:11:13;23.20;99.90
22436;DHT22;11385;50.822;4.324;2023-07-13T14:13:49;22.70;99.90
22436;DHT22;11385;50.822;4.324;2023-07-13T14:16:20;22.70;99.90
22436;DHT22;11385;50.822;4.324;2023-07-13T14:18:48;22.60;99.90
22436;DHT22;11385;50.822;4.324;2023-07-13T14:21:18;22.40;99.90
22436;DHT22;11385;50.822;4.324;2023-07-13T14:23:46;22.50;99.90
22436;DHT22;11385;50.822;4.324;2023-07-13T14:26:17;22.40;99.90
22436;DHT22;11385;50.822;4.324;2023-07-13T14:28:46;22.10;99.90
22436;DHT22;11385;50.822;4.324;2023-07-13T14:31:15;22.30;99.90
22436;DHT22;11385;50.822;4.324;2023-07-13T14:33:42;22.30;99.90
22436;DHT22;11385;50.822;4.324;2023-07-13T14:36:29;22.40;99.90
22436;DHT22;11385;50.822;4.324;2023-07-13T14:38:59;22.40;99.90
22436;DHT22;11385;50.822;4.324;2023-07-13T14:41:26;22.70;99.90
22436;DHT22;11385;50.822;4.324;2023-07-13T14:43:54;23.20;99.90
22436;DHT22;11385;50.822;4.324;2023-07-13T14:46:30;23.40;99.90
22436;DHT22;11385;50.822;4.324;2023-07-13T14:49:10;23.60;99.90
22436;DHT22;11385;50.822;4.324;2023-07-13T14:51:35;23.80;99.90
22436;DHT22;11385;50.822;4.324;2023-07-13T14:54:04;24.20;99.90
22436;DHT22;11385;50.822;4.324;2023-07-13T14:56:31;24.10;99.90
22436;DHT22;11385;50.822;4.324;2023-07-13T14:58:58;24.10;99.90
22436;DHT22;11385;50.822;4.324;2023-07-13T15:01:25;24.00;99.90
22436;DHT22;11385;50.822;4.324;2023-07-13T15:03:52;24.20;99.90
22436;DHT22;11385;50.822;4.324;2023-07-13T15:06:19;24.20;99.90
22436;DHT22;11385;50.822;4.324;2023-07-13T15:08:46;24.40;99.90
22436;DHT22;11385;50.822;4.324;2023-07-13T15:11:16;25.00;99.90
22436;DHT22;11385;50.822;4.324;2023-07-13T15:13:43;25.30;99.90
22436;DHT22;11385;50.822;4.324;2023-07-13T15:16:16;25.40;99.90
22436;DHT22;11385;50.822;4.324;2023-07-13T15:18:43;25.20;99.90
22436;DHT22;11385;50.822;4.324;2023-07-13T15:21:11;25.20;99.90
22436;DHT22;11385;50.822;4.324;2023-07-13T15:23:41;25.10;99.90
22436;DHT22;11385;50.822;4.324;2023-07-13T15:26:11;25.00;99.90
22436;DHT22;11385;50.822;4.324;2023-07-13T15:28:40;25.10;99.90
22436;DHT22;11385;50.822;4.324;2023-07-13T15:31:26;25.20;99.90
22436;DHT22;11385;50.822;4.324;2023-07-13T15:33:56;25.50;99.90
22436;DHT22;11385;50.822;4.324;2023-07-13T15:36:24;25.40;99.90
22436;DHT22;11385;50.822;4.324;2023-07-13T15:38:53;25.90;99.90
22436;DHT22;11385;50.822;4.324;2023-07-13T15:41:22;25.90;99.90
22436;DHT22;11385;50.822;4.324;2023-07-13T15:43:53;25.70;99.90
22436;DHT22;11385;50.822;4.324;2023-07-13T15:46:22;25.90;99.90
22436;DHT22;11385;50.822;4.324;2023-07-13T15:48:50;25.70;99.90